createdAt,value
2023-02-09T00:01:09.428Z,0.70
2023-02-09T00:03:36.848Z,0.70
2023-02-09T00:06:05.990Z,0.70
2023-02-09T00:08:34.115Z,0.80
2023-02-09T00:11:01.204Z,0.80
2023-02-09T00:13:28.224Z,0.80
2023-02-09T00:16:03.090Z,0.70
2023-02-09T00:18:32.047Z,0.80
2023-02-09T00:21:08.749Z,0.80
2023-02-09T00:23:39.873Z,0.80
2023-02-09T00:26:10.416Z,0.90
2023-02-09T00:28:37.913Z,0.90
2023-02-09T00:31:13.296Z,0.90
2023-02-09T00:33:40.468Z,0.90
2023-02-09T00:36:09.732Z,0.90
2023-02-09T00:38:37.207Z,0.90
2023-02-09T00:41:04.332Z,0.90
2023-02-09T00:43:32.034Z,0.90
2023-02-09T00:45:59.176Z,0.90
2023-02-09T00:48:26.597Z,0.90
2023-02-09T00:50:53.979Z,1.00
2023-02-09T00:53:22.258Z,1.00
2023-02-09T00:55:50.156Z,1.00
2023-02-09T00:58:17.603Z,1.10
2023-02-09T01:00:45.300Z,1.10
2023-02-09T01:03:12.433Z,1.10
2023-02-09T01:05:43.092Z,1.20
2023-02-09T01:08:10.383Z,1.10
2023-02-09T01:10:38.139Z,1.10
2023-02-09T01:13:05.790Z,1.10
2023-02-09T01:15:32.988Z,1.20
2023-02-09T01:18:00.337Z,1.20
2023-02-09T01:20:28.164Z,1.10
2023-02-09T01:22:55.398Z,1.10
2023-02-09T01:25:22.387Z,1.10
2023-02-09T01:27:49.361Z,1.10
2023-02-09T01:30:16.846Z,1.20
2023-02-09T01:32:44.164Z,1.20
2023-02-09T01:35:11.472Z,1.20
2023-02-09T01:37:38.686Z,1.20
2023-02-09T01:40:07.140Z,1.20
2023-02-09T01:42:34.490Z,1.20
2023-02-09T01:45:21.349Z,1.20
2023-02-09T01:47:58.335Z,1.20
2023-02-09T01:50:27.449Z,1.20
2023-02-09T01:52:55.939Z,1.20
2023-02-09T01:55:27.633Z,1.20
2023-02-09T01:58:02.726Z,1.10
2023-02-09T02:00:30.058Z,1.20
2023-02-09T02:03:00.988Z,1.20
2023-02-09T02:05:29.467Z,1.20
2023-02-09T02:08:11.085Z,1.20
2023-02-09T02:10:38.459Z,1.20
2023-02-09T02:13:05.461Z,1.20
2023-02-09T02:16:26.717Z,1.20
2023-02-09T02:19:19.563Z,1.20
2023-02-09T02:22:04.899Z,1.20
2023-02-09T02:24:51.049Z,1.30
2023-02-09T02:27:36.518Z,1.30
2023-02-09T02:30:38.985Z,1.30
2023-02-09T02:33:48.379Z,1.30
2023-02-09T02:36:18.409Z,1.30
2023-02-09T02:39:07.184Z,1.40
2023-02-09T02:42:10.941Z,1.30
2023-02-09T02:44:41.527Z,1.30
2023-02-09T02:47:12.868Z,1.30
2023-02-09T02:49:50.778Z,1.20
2023-02-09T02:52:18.061Z,1.20
2023-02-09T02:55:00.721Z,1.30
2023-02-09T02:57:33.755Z,1.30
2023-02-09T03:00:10.382Z,1.30
2023-02-09T03:02:48.435Z,1.30
2023-02-09T03:05:18.236Z,1.20
2023-02-09T03:07:45.211Z,1.20
2023-02-09T03:10:24.711Z,1.20
2023-02-09T03:12:51.622Z,1.20
2023-02-09T03:15:48.071Z,1.20
2023-02-09T03:18:25.180Z,1.20
2023-02-09T03:20:59.879Z,1.20
2023-02-09T03:23:45.642Z,1.20
2023-02-09T03:26:21.739Z,1.20
2023-02-09T03:28:52.766Z,1.20
2023-02-09T03:31:20.697Z,1.20
2023-02-09T03:33:48.252Z,1.20
2023-02-09T03:36:19.466Z,1.20
2023-02-09T03:38:46.558Z,1.20
2023-02-09T03:41:13.536Z,1.20
2023-02-09T03:43:59.055Z,1.20
2023-02-09T03:46:26.177Z,1.10
2023-02-09T03:48:53.144Z,1.20
2023-02-09T03:51:20.366Z,1.10
2023-02-09T03:53:47.649Z,1.10
2023-02-09T03:56:14.576Z,1.10
2023-02-09T03:58:41.529Z,1.10
2023-02-09T04:01:10.816Z,1.10
2023-02-09T04:03:39.990Z,1.10
2023-02-09T04:06:07.192Z,1.10
2023-02-09T04:08:34.245Z,1.10
2023-02-09T04:11:01.567Z,1.10
2023-02-09T04:13:29.073Z,1.10
2023-02-09T04:15:56.429Z,1.10
2023-02-09T04:18:23.502Z,1.10
2023-02-09T04:20:50.525Z,1.10
2023-02-09T04:23:19.474Z,1.10
2023-02-09T04:25:47.625Z,1.10
2023-02-09T04:28:14.560Z,1.10
2023-02-09T04:30:44.113Z,1.20
2023-02-09T04:33:11.421Z,1.20
2023-02-09T04:35:38.590Z,1.20
2023-02-09T04:38:05.634Z,1.20
2023-02-09T04:40:33.001Z,1.20
2023-02-09T04:42:59.973Z,1.30
2023-02-09T04:45:27.152Z,1.30
2023-02-09T04:47:54.192Z,1.20
2023-02-09T04:50:22.029Z,1.20
2023-02-09T04:52:48.994Z,1.30
2023-02-09T04:55:17.845Z,1.30
2023-02-09T04:58:03.233Z,1.30
2023-02-09T05:00:30.233Z,1.40
2023-02-09T05:02:57.400Z,1.40
2023-02-09T05:05:24.453Z,1.40
2023-02-09T05:07:51.655Z,1.40
2023-02-09T05:10:18.852Z,1.40
2023-02-09T05:12:46.208Z,1.40
2023-02-09T05:15:13.795Z,1.40
2023-02-09T05:17:40.871Z,1.40
2023-02-09T05:20:08.938Z,1.40
2023-02-09T05:22:37.072Z,1.40
2023-02-09T05:25:04.424Z,1.50
2023-02-09T05:27:31.377Z,1.50
2023-02-09T05:29:58.520Z,1.50
2023-02-09T05:32:26.067Z,1.50
2023-02-09T05:34:53.249Z,1.50
2023-02-09T05:37:20.172Z,1.40
2023-02-09T05:39:47.131Z,1.50
2023-02-09T05:42:16.907Z,1.40
2023-02-09T05:44:45.822Z,1.40
2023-02-09T05:47:14.671Z,1.40
2023-02-09T05:49:42.335Z,1.40
2023-02-09T05:52:10.173Z,1.30
2023-02-09T05:54:37.927Z,1.30
2023-02-09T05:57:06.370Z,1.30
2023-02-09T05:59:33.631Z,1.40
2023-02-09T06:02:01.578Z,1.30
2023-02-09T06:04:29.325Z,1.40
2023-02-09T06:06:56.996Z,1.30
2023-02-09T06:09:24.141Z,1.30
2023-02-09T06:11:51.987Z,1.30
2023-02-09T06:14:19.634Z,1.30
2023-02-09T06:16:46.594Z,1.30
2023-02-09T06:19:18.232Z,1.40
2023-02-09T06:21:45.658Z,1.40
2023-02-09T06:24:13.890Z,1.30
2023-02-09T06:26:41.725Z,1.30
2023-02-09T06:29:09.914Z,1.30
2023-02-09T06:31:38.535Z,1.30
2023-02-09T06:34:06.158Z,1.40
2023-02-09T06:36:33.512Z,1.30
2023-02-09T06:39:01.344Z,1.40
2023-02-09T06:41:28.751Z,1.30
2023-02-09T06:43:56.136Z,1.30
2023-02-09T06:46:23.201Z,1.30
2023-02-09T06:48:50.643Z,1.30
2023-02-09T06:51:17.804Z,1.30
2023-02-09T06:53:53.410Z,1.30
2023-02-09T06:56:23.567Z,1.30
2023-02-09T06:58:50.757Z,1.30
2023-02-09T07:01:18.076Z,1.40
2023-02-09T07:03:45.561Z,1.50
2023-02-09T07:06:15.669Z,1.50
2023-02-09T07:08:43.339Z,1.60
2023-02-09T07:11:15.656Z,1.60
2023-02-09T07:13:43.161Z,1.70
2023-02-09T07:16:12.175Z,1.80
2023-02-09T07:18:40.461Z,1.90
2023-02-09T07:21:10.418Z,1.90
2023-02-09T07:23:38.177Z,1.90
2023-02-09T07:28:48.261Z,1.90
2023-02-09T07:31:16.470Z,2.00
2023-02-09T07:33:43.740Z,2.00
2023-02-09T07:36:12.626Z,2.10
2023-02-09T07:38:40.766Z,2.10
2023-02-09T07:41:17.063Z,2.20
2023-02-09T07:43:44.238Z,2.20
2023-02-09T07:46:13.800Z,2.10
2023-02-09T07:48:40.993Z,2.20
2023-02-09T07:51:21.083Z,2.20
2023-02-09T07:53:48.871Z,2.20
2023-02-09T07:56:15.913Z,2.20
2023-02-09T07:58:42.888Z,2.20
2023-02-09T08:01:12.598Z,2.20
2023-02-09T08:03:42.663Z,2.30
2023-02-09T08:06:36.268Z,2.30
2023-02-09T08:09:08.667Z,2.30
2023-02-09T08:11:58.146Z,2.30
2023-02-09T08:14:30.065Z,2.30
2023-02-09T08:17:20.197Z,2.30
2023-02-09T08:19:59.060Z,2.30
2023-02-09T08:22:30.219Z,2.30
2023-02-09T08:24:58.051Z,2.30
2023-02-09T08:27:25.096Z,2.30
2023-02-09T08:29:52.425Z,2.30
2023-02-09T08:32:19.358Z,2.20
2023-02-09T08:34:46.283Z,2.20
2023-02-09T08:37:13.370Z,2.20
2023-02-09T08:39:40.318Z,2.30
2023-02-09T08:42:07.366Z,2.20
2023-02-09T08:44:34.514Z,2.20
2023-02-09T08:47:02.080Z,2.20
2023-02-09T08:49:29.184Z,2.20
2023-02-09T08:51:56.168Z,2.20
2023-02-09T08:54:23.516Z,2.20
2023-02-09T08:56:50.542Z,2.30
2023-02-09T08:59:20.012Z,2.30
2023-02-09T09:01:47.150Z,2.30
2023-02-09T09:04:14.321Z,2.40
2023-02-09T09:06:41.531Z,2.30
2023-02-09T09:09:08.617Z,2.40
2023-02-09T09:11:36.604Z,2.40
2023-02-09T09:14:03.839Z,2.40
2023-02-09T09:16:31.591Z,2.50
2023-02-09T09:18:58.654Z,2.50
2023-02-09T09:21:26.146Z,2.50
2023-02-09T09:23:53.200Z,2.50
2023-02-09T09:26:20.111Z,2.60
2023-02-09T09:28:51.249Z,2.50
2023-02-09T09:31:19.142Z,2.50
2023-02-09T09:33:46.565Z,2.50
2023-02-09T09:36:14.763Z,2.50
2023-02-09T09:38:42.448Z,2.60
2023-02-09T09:41:24.489Z,2.60
2023-02-09T09:43:53.645Z,2.60
2023-02-09T09:46:26.511Z,2.60
2023-02-09T09:48:58.485Z,2.60
2023-02-09T09:51:38.270Z,2.60
2023-02-09T09:54:08.979Z,2.60
2023-02-09T09:56:36.042Z,2.60
2023-02-09T09:59:03.262Z,2.60
2023-02-09T10:01:32.694Z,2.60
2023-02-09T10:04:11.823Z,2.60
2023-02-09T10:06:42.149Z,2.50
2023-02-09T10:09:33.420Z,2.60
2023-02-09T10:12:26.739Z,2.60
2023-02-09T10:14:53.719Z,2.70
2023-02-09T10:17:20.648Z,2.70
2023-02-09T10:20:01.922Z,2.60
2023-02-09T10:22:29.005Z,2.60
2023-02-09T10:24:56.044Z,2.60
2023-02-09T10:27:31.326Z,2.60
2023-02-09T10:30:20.827Z,2.60
2023-02-09T10:32:48.282Z,2.60
2023-02-09T10:35:27.587Z,2.70
2023-02-09T10:38:04.135Z,2.70
2023-02-09T10:40:33.175Z,2.70
2023-02-09T10:43:06.722Z,2.60
2023-02-09T10:45:45.618Z,2.70
2023-02-09T10:48:12.678Z,2.70
2023-02-09T10:50:51.569Z,2.70
2023-02-09T10:53:23.803Z,2.70
2023-02-09T10:55:51.549Z,2.70
2023-02-09T10:58:33.600Z,2.70
2023-02-09T11:01:09.802Z,2.80
2023-02-09T11:03:46.157Z,2.80
2023-02-09T11:06:19.052Z,2.80
2023-02-09T11:09:01.422Z,2.80
2023-02-09T11:11:38.184Z,2.80
2023-02-09T11:14:15.348Z,2.90
2023-02-09T11:17:17.667Z,2.90
2023-02-09T11:20:05.958Z,2.90
2023-02-09T11:22:32.865Z,2.80
2023-02-09T11:25:02.506Z,2.80
2023-02-09T11:27:41.707Z,2.80
2023-02-09T11:30:45.226Z,2.90
2023-02-09T11:33:40.830Z,2.90
2023-02-09T11:36:19.742Z,2.90
2023-02-09T11:38:56.494Z,2.90
2023-02-09T11:41:48.399Z,2.90
2023-02-09T11:44:27.930Z,2.90
2023-02-09T11:47:02.577Z,2.90
2023-02-09T11:49:37.173Z,2.90
2023-02-09T11:52:07.049Z,2.90
2023-02-09T11:54:36.444Z,2.90
2023-02-09T11:57:18.566Z,2.90
2023-02-09T11:59:56.480Z,2.90
2023-02-09T12:02:39.106Z,2.90
2023-02-09T12:05:11.371Z,2.90
2023-02-09T12:07:53.127Z,2.90
2023-02-09T12:10:43.817Z,2.90
2023-02-09T12:13:19.969Z,2.90
2023-02-09T12:15:52.070Z,2.90
2023-02-09T12:18:30.969Z,2.90
2023-02-09T12:21:04.484Z,2.90
2023-02-09T12:23:36.719Z,2.90
2023-02-09T12:26:13.358Z,3.00
2023-02-09T12:28:45.595Z,3.00
2023-02-09T12:31:19.348Z,3.00
2023-02-09T12:33:46.555Z,3.00
2023-02-09T12:36:13.707Z,3.00
2023-02-09T12:39:04.049Z,3.10
2023-02-09T12:41:51.324Z,3.10
2023-02-09T12:44:20.001Z,3.00
2023-02-09T12:46:55.797Z,3.00
2023-02-09T12:49:22.700Z,3.10
2023-02-09T12:51:52.979Z,3.10
2023-02-09T12:54:41.503Z,3.10
2023-02-09T12:57:20.213Z,3.10
2023-02-09T12:59:53.318Z,3.10
2023-02-09T13:02:50.552Z,3.10
2023-02-09T13:05:23.531Z,3.10
2023-02-09T13:08:06.774Z,3.10
2023-02-09T13:10:43.141Z,3.10
2023-02-09T13:13:13.051Z,3.10
2023-02-09T13:15:52.460Z,3.10
2023-02-09T13:18:34.283Z,3.10
2023-02-09T13:21:38.090Z,3.10
2023-02-09T13:24:09.650Z,3.20
2023-02-09T13:26:48.344Z,3.20
2023-02-09T13:29:22.293Z,3.20
2023-02-09T13:31:55.308Z,3.20
2023-02-09T13:34:41.632Z,3.20
2023-02-09T13:37:29.940Z,3.20
2023-02-09T13:40:02.577Z,3.20
2023-02-09T13:42:35.528Z,3.20
2023-02-09T13:45:02.573Z,3.20
2023-02-09T13:47:30.240Z,3.20
2023-02-09T13:50:01.820Z,3.20
2023-02-09T13:52:38.974Z,3.20
2023-02-09T13:55:13.559Z,3.30
2023-02-09T13:57:43.991Z,3.20
2023-02-09T14:00:20.848Z,3.30
2023-02-09T14:02:55.442Z,3.30
2023-02-09T14:05:41.867Z,3.30
2023-02-09T14:08:10.442Z,3.30
2023-02-09T14:10:38.193Z,3.30
2023-02-09T14:13:15.805Z,3.30
2023-02-09T14:16:06.317Z,3.30
2023-02-09T14:18:52.160Z,3.20
2023-02-09T14:21:29.988Z,3.30
2023-02-09T14:23:58.571Z,3.20
2023-02-09T14:26:30.460Z,3.20
2023-02-09T14:29:32.050Z,3.20
2023-02-09T14:32:01.655Z,3.20
2023-02-09T14:34:31.887Z,3.20
2023-02-09T14:37:15.855Z,3.20
2023-02-09T14:39:56.603Z,3.20
2023-02-09T14:42:24.537Z,3.20
2023-02-09T14:44:58.139Z,3.30
2023-02-09T14:47:39.139Z,3.30
2023-02-09T14:50:14.603Z,3.20
2023-02-09T14:52:47.217Z,3.20
2023-02-09T14:55:30.855Z,3.20
2023-02-09T14:57:58.146Z,3.20
2023-02-09T15:00:28.357Z,3.20
2023-02-09T15:02:55.878Z,3.10
2023-02-09T15:05:26.161Z,3.10
2023-02-09T15:07:56.676Z,3.10
2023-02-09T15:10:28.268Z,3.00
2023-02-09T15:12:55.837Z,3.00
2023-02-09T15:15:24.244Z,3.00
2023-02-09T15:17:54.381Z,3.00
2023-02-09T15:20:25.724Z,3.00
2023-02-09T15:22:55.238Z,2.90
2023-02-09T15:25:23.855Z,2.90
2023-02-09T15:27:54.297Z,2.90
2023-02-09T15:30:25.833Z,2.90
2023-02-09T15:32:53.371Z,2.90
2023-02-09T15:35:23.611Z,2.80
2023-02-09T15:37:57.687Z,2.80
2023-02-09T15:40:55.291Z,2.80
2023-02-09T15:43:43.798Z,2.80
2023-02-09T15:46:30.097Z,2.70
2023-02-09T15:48:57.459Z,2.70
2023-02-09T15:51:27.402Z,2.60
2023-02-09T15:53:56.894Z,2.70
2023-02-09T15:56:24.094Z,2.70
2023-02-09T15:58:51.830Z,2.70
2023-02-09T16:01:19.382Z,2.70
2023-02-09T16:03:46.938Z,2.60
2023-02-09T16:06:25.178Z,2.70
2023-02-09T16:08:53.708Z,2.60
2023-02-09T16:11:29.516Z,2.60
2023-02-09T16:13:56.595Z,2.50
2023-02-09T16:16:25.731Z,2.60
2023-02-09T16:18:52.788Z,2.60
2023-02-09T16:21:29.232Z,2.50
2023-02-09T16:23:58.869Z,2.50
2023-02-09T16:26:27.841Z,2.50
2023-02-09T16:28:55.166Z,2.50
2023-02-09T16:31:23.252Z,2.50
2023-02-09T16:33:51.454Z,2.50
2023-02-09T16:36:21.471Z,2.50
2023-02-09T16:38:48.752Z,2.50
2023-02-09T16:41:37.383Z,2.50
2023-02-09T16:44:15.573Z,2.50
2023-02-09T16:46:43.005Z,2.50
2023-02-09T16:49:28.881Z,2.50
2023-02-09T16:51:57.724Z,2.40
2023-02-09T16:54:24.719Z,2.40
2023-02-09T16:56:54.514Z,2.40
2023-02-09T16:59:21.818Z,2.40
2023-02-09T17:01:49.304Z,2.40
2023-02-09T17:04:16.456Z,2.40
2023-02-09T17:06:45.059Z,2.40
2023-02-09T17:09:16.066Z,2.30
2023-02-09T17:11:43.275Z,2.30
2023-02-09T17:14:10.431Z,2.30
2023-02-09T17:16:40.136Z,2.30
2023-02-09T17:19:14.169Z,2.30
2023-02-09T17:21:41.436Z,2.30
2023-02-09T17:24:17.857Z,2.20
2023-02-09T17:26:45.170Z,2.20
2023-02-09T17:29:12.786Z,2.10
2023-02-09T17:31:52.808Z,2.20
2023-02-09T17:34:27.126Z,2.20
2023-02-09T17:36:55.648Z,2.20
2023-02-09T17:39:22.666Z,2.20
2023-02-09T17:41:50.143Z,2.20
2023-02-09T17:44:43.401Z,2.20
2023-02-09T17:47:18.627Z,2.20
2023-02-09T17:49:46.399Z,2.20
2023-02-09T17:52:18.778Z,2.20
2023-02-09T17:54:46.984Z,2.30
2023-02-09T17:57:16.433Z,2.30
2023-02-09T17:59:44.010Z,2.40
2023-02-09T18:02:17.413Z,2.40
2023-02-09T18:04:44.852Z,2.50
2023-02-09T18:07:13.996Z,2.50
2023-02-09T18:09:41.319Z,2.50
2023-02-09T18:12:18.809Z,2.50
2023-02-09T18:14:46.391Z,2.50
2023-02-09T18:17:13.661Z,2.50
2023-02-09T18:19:40.633Z,2.40
2023-02-09T18:22:07.601Z,2.40
2023-02-09T18:24:35.384Z,2.40
2023-02-09T18:27:03.091Z,2.40
2023-02-09T18:29:30.361Z,2.40
2023-02-09T18:32:02.352Z,2.50
2023-02-09T18:34:29.896Z,2.50
2023-02-09T18:36:57.181Z,2.60
2023-02-09T18:39:24.243Z,2.70
2023-02-09T18:41:54.887Z,2.70
2023-02-09T18:44:29.429Z,2.70
2023-02-09T18:46:57.808Z,2.80
2023-02-09T18:49:24.801Z,2.80
2023-02-09T18:51:52.418Z,2.90
2023-02-09T18:54:19.578Z,2.90
2023-02-09T18:56:46.767Z,2.90
2023-02-09T18:59:13.943Z,3.00
2023-02-09T19:01:41.142Z,3.10
2023-02-09T19:04:08.480Z,3.00
2023-02-09T19:06:35.817Z,3.10
2023-02-09T19:09:03.229Z,3.10
2023-02-09T19:11:30.240Z,3.00
2023-02-09T19:14:29.358Z,3.10
2023-02-09T19:16:56.288Z,3.10
2023-02-09T19:19:23.230Z,3.00
2023-02-09T19:21:52.239Z,3.00
2023-02-09T19:24:19.462Z,2.90
2023-02-09T19:26:46.468Z,3.00
2023-02-09T19:29:14.298Z,3.00
2023-02-09T19:31:41.408Z,2.90
2023-02-09T19:34:08.381Z,2.90
2023-02-09T19:36:35.346Z,2.90
2023-02-09T19:39:02.446Z,2.90
2023-02-09T19:41:29.461Z,2.80
2023-02-09T19:43:57.854Z,2.90
2023-02-09T19:46:26.026Z,2.90
2023-02-09T19:48:56.507Z,2.90
2023-02-09T19:51:24.042Z,2.90
2023-02-09T19:53:51.651Z,2.80
2023-02-09T19:56:21.175Z,2.80
2023-02-09T19:58:48.301Z,2.80
2023-02-09T20:01:15.941Z,2.80
2023-02-09T20:03:43.270Z,2.80
2023-02-09T20:06:14.027Z,2.90
2023-02-09T20:08:42.252Z,2.90
2023-02-09T20:11:16.251Z,2.90
2023-02-09T20:13:43.404Z,3.00
2023-02-09T20:16:14.105Z,3.00
2023-02-09T20:18:41.414Z,3.10
2023-02-09T20:21:09.706Z,3.30
2023-02-09T20:23:37.647Z,3.30
2023-02-09T20:26:19.383Z,3.40
2023-02-09T20:28:46.754Z,3.40
2023-02-09T20:31:22.193Z,3.40
2023-02-09T20:33:49.611Z,3.50
2023-02-09T20:36:17.208Z,3.60
2023-02-09T20:38:44.988Z,3.60
2023-02-09T20:41:15.440Z,3.70
2023-02-09T20:44:01.663Z,3.70
2023-02-09T20:46:48.740Z,3.70
2023-02-09T20:49:17.713Z,3.80
2023-02-09T20:51:46.061Z,3.70
2023-02-09T20:54:18.226Z,3.80
2023-02-09T20:56:45.882Z,3.80
2023-02-09T20:59:14.057Z,3.80
2023-02-09T21:01:41.872Z,3.80
2023-02-09T21:04:09.573Z,3.90
2023-02-09T21:06:38.096Z,3.90
2023-02-09T21:09:12.207Z,4.00
2023-02-09T21:11:39.564Z,4.10
2023-02-09T21:14:06.584Z,4.20
2023-02-09T21:16:34.106Z,4.20
2023-02-09T21:19:01.839Z,4.30
2023-02-09T21:21:29.703Z,4.40
2023-02-09T21:23:57.003Z,4.50
2023-02-09T21:26:24.593Z,4.40
2023-02-09T21:28:56.299Z,4.30
2023-02-09T21:31:27.235Z,4.00
2023-02-09T21:33:54.633Z,3.90
2023-02-09T21:36:21.555Z,3.90
2023-02-09T21:38:48.680Z,3.80
2023-02-09T21:41:40.013Z,3.80
2023-02-09T21:44:07.716Z,3.80
2023-02-09T21:46:34.810Z,3.90
2023-02-09T21:49:01.879Z,4.00
2023-02-09T21:51:37.062Z,4.10
2023-02-09T21:54:04.447Z,4.10
2023-02-09T21:56:31.390Z,3.50
2023-02-09T21:58:58.330Z,2.80
2023-02-09T22:01:25.564Z,2.40
2023-02-09T22:03:57.497Z,2.10
2023-02-09T22:06:26.196Z,2.10
2023-02-09T22:08:53.390Z,2.10
2023-02-09T22:11:20.456Z,2.30
2023-02-09T22:13:47.456Z,2.40
2023-02-09T22:16:19.821Z,2.50
2023-02-09T22:18:46.962Z,2.70
2023-02-09T22:21:14.368Z,2.80
2023-02-09T22:23:41.392Z,3.00
2023-02-09T22:26:08.857Z,3.10
2023-02-09T22:28:36.663Z,3.10
2023-02-09T22:31:16.311Z,3.10
2023-02-09T22:33:43.829Z,3.20
2023-02-09T22:36:16.495Z,3.20
2023-02-09T22:38:47.375Z,3.20
2023-02-09T22:41:23.539Z,3.30
2023-02-09T22:43:58.619Z,3.10
2023-02-09T22:46:29.464Z,3.10
2023-02-09T22:49:01.544Z,3.10
2023-02-09T22:51:31.171Z,3.10
2023-02-09T22:53:59.248Z,3.10
2023-02-09T22:56:27.990Z,3.10
2023-02-09T22:58:56.535Z,3.10
2023-02-09T23:01:24.154Z,3.20
2023-02-09T23:03:51.825Z,3.10
2023-02-09T23:06:23.506Z,3.10
2023-02-09T23:08:53.987Z,3.20
2023-02-09T23:11:21.188Z,3.20
2023-02-09T23:13:52.846Z,3.20
2023-02-09T23:16:25.885Z,3.20
2023-02-09T23:18:58.827Z,3.20
2023-02-09T23:21:33.246Z,3.30
2023-02-09T23:24:00.210Z,3.30
2023-02-09T23:26:27.966Z,3.30
2023-02-09T23:28:57.298Z,3.30
2023-02-09T23:31:25.483Z,3.30
2023-02-09T23:33:52.774Z,3.30
2023-02-09T23:36:22.937Z,3.40
2023-02-09T23:38:57.098Z,3.30
2023-02-09T23:41:24.842Z,3.30
2023-02-09T23:43:53.163Z,3.40
2023-02-09T23:46:23.276Z,3.30
2023-02-09T23:48:50.765Z,3.20
2023-02-09T23:51:19.868Z,3.20
2023-02-09T23:53:47.717Z,3.20
2023-02-09T23:56:16.545Z,3.20
2023-02-09T23:58:45.865Z,3.10
